createdAt,value
2018-03-02T00:02:02.595Z,28.95
2018-03-02T00:04:30.434Z,25.95
2018-03-02T00:06:58.106Z,27.67
2018-03-02T00:09:25.665Z,27.10
2018-03-02T00:11:53.191Z,25.62
2018-03-02T00:14:20.746Z,24.90
2018-03-02T00:16:51.302Z,28.38
2018-03-02T00:19:19.152Z,26.85
2018-03-02T00:21:46.675Z,26.98
2018-03-02T00:24:14.200Z,24.60
2018-03-02T00:26:41.746Z,24.20
2018-03-02T00:29:09.274Z,24.20
2018-03-02T00:31:36.984Z,29.87
2018-03-02T00:34:04.527Z,23.58
2018-03-02T00:36:32.043Z,27.48
2018-03-02T00:38:59.593Z,25.70
2018-03-02T00:41:27.113Z,27.75
2018-03-02T00:43:54.841Z,29.40
2018-03-02T00:46:22.359Z,27.60
2018-03-02T00:48:49.882Z,28.52
2018-03-02T00:51:17.425Z,29.42
2018-03-02T00:53:44.947Z,25.65
2018-03-02T00:56:12.514Z,24.33
2018-03-02T00:58:40.031Z,22.30
2018-03-02T01:01:07.554Z,25.95
2018-03-02T01:03:35.108Z,24.02
2018-03-02T01:06:02.626Z,24.85
2018-03-02T01:08:30.610Z,25.30
2018-03-02T01:10:58.129Z,26.75
2018-03-02T01:13:25.826Z,29.15
2018-03-02T01:15:53.374Z,22.15
2018-03-02T01:18:20.891Z,26.25
2018-03-02T01:20:48.747Z,25.80
2018-03-02T01:23:16.258Z,27.30
2018-03-02T01:25:43.773Z,25.65
2018-03-02T01:28:11.321Z,27.62
2018-03-02T01:30:38.849Z,28.38
2018-03-02T01:33:06.754Z,27.58
2018-03-02T01:35:34.275Z,25.12
2018-03-02T01:38:01.803Z,28.40
2018-03-02T01:40:29.362Z,30.23
2018-03-02T01:42:56.927Z,24.87
2018-03-02T01:45:24.653Z,27.60
2018-03-02T01:47:52.169Z,26.87
2018-03-02T01:50:19.708Z,29.25
2018-03-02T01:52:47.257Z,32.67
2018-03-02T01:55:14.826Z,27.30
2018-03-02T01:57:42.463Z,22.92
2018-03-02T02:00:09.976Z,20.67
2018-03-02T02:02:37.522Z,23.55
2018-03-02T02:05:05.092Z,27.48
2018-03-02T02:07:32.627Z,29.63
2018-03-02T02:10:00.187Z,29.27
2018-03-02T02:12:28.039Z,25.75
2018-03-02T02:14:55.561Z,25.10
2018-03-02T02:17:23.109Z,25.75
2018-03-02T02:19:50.625Z,25.10
2018-03-02T02:22:18.489Z,23.62
2018-03-02T02:24:46.002Z,25.60
2018-03-02T02:27:13.802Z,25.45
2018-03-02T02:29:41.771Z,25.33
2018-03-02T02:32:10.154Z,26.45
2018-03-02T02:34:37.722Z,27.40
2018-03-02T02:37:05.257Z,32.83
2018-03-02T02:39:32.776Z,22.20
2018-03-02T02:42:00.333Z,26.95
2018-03-02T02:44:27.860Z,29.98
2018-03-02T02:46:55.699Z,24.33
2018-03-02T02:49:23.220Z,25.50
2018-03-02T02:51:50.740Z,29.55
2018-03-02T02:54:18.284Z,26.23
2018-03-02T02:56:45.814Z,27.65
2018-03-02T02:59:13.405Z,25.92
2018-03-02T03:01:40.926Z,22.17
2018-03-02T03:04:08.454Z,27.80
2018-03-02T03:06:36.006Z,19.85
2018-03-02T03:09:03.537Z,24.48
2018-03-02T03:11:31.097Z,26.20
2018-03-02T03:13:58.622Z,30.67
2018-03-02T03:16:26.141Z,23.83
2018-03-02T03:18:53.974Z,22.83
2018-03-02T03:21:21.747Z,27.85
2018-03-02T03:23:49.296Z,35.42
2018-03-02T03:26:16.834Z,28.45
2018-03-02T03:28:44.361Z,28.73
2018-03-02T03:31:12.128Z,28.80
2018-03-02T03:33:39.658Z,23.50
2018-03-02T03:36:07.290Z,26.33
2018-03-02T03:38:34.818Z,23.77
2018-03-02T03:41:02.345Z,26.77
2018-03-02T03:43:29.896Z,23.48
2018-03-02T03:45:57.425Z,26.08
2018-03-02T03:48:25.174Z,26.40
2018-03-02T03:50:52.828Z,28.17
2018-03-02T03:53:20.351Z,24.37
2018-03-02T03:55:47.902Z,31.42
2018-03-02T03:58:15.424Z,25.35
2018-03-02T04:00:43.173Z,29.05
2018-03-02T04:03:10.705Z,26.33
2018-03-02T04:05:38.223Z,24.58
2018-03-02T04:08:05.770Z,24.90
2018-03-02T04:10:33.285Z,26.12
2018-03-02T04:13:01.193Z,35.63
2018-03-02T04:15:28.723Z,27.75
2018-03-02T04:17:56.254Z,30.58
2018-03-02T04:20:23.797Z,26.92
2018-03-02T04:22:51.319Z,25.10
2018-03-02T04:25:18.882Z,27.08
2018-03-02T04:27:46.397Z,25.58
2018-03-02T04:30:13.917Z,26.33
2018-03-02T04:32:41.474Z,28.75
2018-03-02T04:35:09.063Z,26.23
2018-03-02T04:37:36.632Z,25.00
2018-03-02T04:40:04.150Z,27.80
2018-03-02T04:42:31.670Z,27.05
2018-03-02T04:44:59.222Z,26.37
2018-03-02T04:47:26.746Z,27.95
2018-03-02T04:49:54.458Z,26.15
2018-03-02T04:52:21.978Z,26.10
2018-03-02T04:54:49.493Z,32.72
2018-03-02T04:57:17.050Z,24.25
2018-03-02T04:59:44.570Z,29.50
2018-03-02T05:02:12.249Z,28.02
2018-03-02T05:04:39.767Z,27.62
2018-03-02T05:07:07.339Z,26.40
2018-03-02T05:09:34.892Z,30.40
2018-03-02T05:12:02.407Z,31.80
2018-03-02T05:14:30.150Z,33.20
2018-03-02T05:16:57.664Z,26.15
2018-03-02T05:19:25.186Z,24.65
2018-03-02T05:21:52.849Z,31.60
2018-03-02T05:24:20.377Z,29.58
2018-03-02T05:26:47.938Z,27.90
2018-03-02T05:29:15.479Z,20.88
2018-03-02T05:31:43.002Z,24.20
2018-03-02T05:34:10.548Z,25.08
2018-03-02T05:36:38.307Z,33.60
2018-03-02T05:39:06.153Z,24.23
2018-03-02T05:41:33.671Z,29.48
2018-03-02T05:44:01.209Z,26.15
2018-03-02T05:46:28.762Z,23.98
2018-03-02T05:48:56.287Z,19.17
2018-03-02T05:51:23.991Z,23.12
2018-03-02T05:53:51.505Z,28.08
2018-03-02T05:56:19.025Z,28.23
2018-03-02T05:58:46.582Z,29.37
2018-03-02T06:01:14.102Z,28.67
2018-03-02T06:03:41.677Z,23.42
2018-03-02T06:06:09.201Z,31.25
2018-03-02T06:08:36.770Z,32.22
2018-03-02T06:11:04.322Z,25.48
2018-03-02T06:13:31.839Z,32.72
2018-03-02T06:15:59.650Z,25.33
2018-03-02T06:18:27.181Z,33.88
2018-03-02T06:20:54.703Z,32.40
2018-03-02T06:23:22.261Z,31.67
2018-03-02T06:25:49.790Z,27.00
2018-03-02T06:28:17.366Z,32.20
2018-03-02T06:30:44.881Z,30.52
2018-03-02T06:33:12.406Z,36.92
2018-03-02T06:35:39.954Z,33.40
2018-03-02T06:38:07.474Z,30.27
2018-03-02T06:40:35.036Z,27.58
2018-03-02T06:43:02.554Z,32.33
2018-03-02T06:45:30.131Z,32.35
2018-03-02T06:47:57.694Z,29.17
2018-03-02T06:50:25.214Z,33.28
2018-03-02T06:52:52.992Z,36.65
2018-03-02T06:55:20.510Z,26.33
2018-03-02T06:57:48.030Z,27.73
2018-03-02T07:00:15.593Z,27.50
2018-03-02T07:02:43.109Z,29.12
2018-03-02T07:05:11.030Z,29.85
2018-03-02T07:07:38.552Z,20.15
2018-03-02T07:10:06.072Z,25.77
2018-03-02T07:12:33.629Z,28.65
2018-03-02T07:15:01.146Z,25.55
2018-03-02T07:17:29.034Z,31.05
2018-03-02T07:19:56.553Z,28.40
2018-03-02T07:22:24.152Z,26.05
2018-03-02T07:24:51.696Z,29.08
2018-03-02T07:27:19.219Z,28.40
2018-03-02T07:29:46.933Z,21.30
2018-03-02T07:32:14.456Z,30.52
2018-03-02T07:34:41.990Z,23.15
2018-03-02T07:37:09.530Z,33.65
2018-03-02T07:39:37.050Z,25.40
2018-03-02T07:42:04.834Z,20.83
2018-03-02T07:44:32.353Z,25.05
2018-03-02T07:46:59.870Z,23.35
2018-03-02T07:49:27.742Z,26.65
2018-03-02T07:51:55.264Z,27.62
2018-03-02T07:54:23.133Z,22.62
2018-03-02T07:56:50.925Z,29.63
2018-03-02T07:59:18.447Z,33.40
2018-03-02T08:01:45.998Z,22.77
2018-03-02T08:04:13.519Z,26.23
2018-03-02T08:06:41.346Z,29.17
2018-03-02T08:09:08.897Z,24.48
2018-03-02T08:11:36.410Z,30.88
2018-03-02T08:14:03.965Z,26.73
2018-03-02T08:16:31.490Z,29.02
2018-03-02T08:18:59.265Z,26.65
2018-03-02T08:21:26.794Z,27.15
2018-03-02T08:23:54.305Z,23.73
2018-03-02T08:26:21.890Z,31.52
2018-03-02T08:28:49.410Z,32.03
2018-03-02T08:31:17.093Z,32.58
2018-03-02T08:33:44.622Z,25.77
2018-03-02T08:36:12.141Z,29.92
2018-03-02T08:38:39.682Z,25.70
2018-03-02T08:41:07.203Z,29.02
2018-03-02T08:43:34.772Z,21.52
2018-03-02T08:46:02.290Z,29.65
2018-03-02T08:48:29.814Z,23.35
2018-03-02T08:50:57.366Z,31.20
2018-03-02T08:53:24.887Z,29.92
2018-03-02T08:55:52.848Z,30.85
2018-03-02T08:58:20.380Z,32.35
2018-03-02T09:00:48.113Z,26.10
2018-03-02T09:03:15.662Z,31.55
2018-03-02T09:05:43.194Z,28.73
2018-03-02T09:08:10.915Z,27.52
2018-03-02T09:10:38.434Z,27.95
2018-03-02T09:13:05.958Z,30.27
2018-03-02T09:15:33.506Z,30.58
2018-03-02T09:18:01.026Z,29.55
2018-03-02T09:20:28.736Z,25.65
2018-03-02T09:22:56.254Z,31.37
2018-03-02T09:25:23.779Z,30.92
2018-03-02T09:27:51.371Z,23.20
2018-03-02T09:30:18.906Z,33.80
2018-03-02T09:32:46.630Z,28.58
2018-03-02T09:35:14.153Z,30.92
2018-03-02T09:37:41.677Z,29.77
2018-03-02T09:40:09.214Z,29.73
2018-03-02T09:42:36.747Z,29.35
2018-03-02T09:45:04.637Z,32.60
2018-03-02T09:47:32.154Z,29.30
2018-03-02T09:49:59.738Z,31.85
2018-03-02T09:52:27.295Z,31.60
2018-03-02T09:54:54.814Z,28.30
2018-03-02T09:57:22.674Z,31.55
2018-03-02T09:59:50.206Z,31.45
2018-03-02T10:02:17.726Z,30.00
2018-03-02T10:04:45.303Z,30.58
2018-03-02T10:07:13.816Z,29.90
2018-03-02T10:09:41.518Z,33.70
2018-03-02T10:12:09.140Z,34.08
2018-03-02T10:14:36.688Z,33.50
2018-03-02T10:17:04.238Z,35.35
2018-03-02T10:19:31.824Z,28.42
2018-03-02T10:21:59.684Z,32.35
2018-03-02T10:24:27.345Z,32.72
2018-03-02T10:26:54.874Z,33.05
2018-03-02T10:29:22.670Z,33.40
2018-03-02T10:31:50.187Z,35.17
2018-03-02T10:34:17.871Z,33.30
2018-03-02T10:36:45.528Z,30.45
2018-03-02T10:39:13.047Z,33.63
2018-03-02T10:41:40.598Z,32.10
2018-03-02T10:44:08.115Z,31.87
2018-03-02T10:46:35.673Z,31.30
2018-03-02T10:49:03.193Z,31.30
2018-03-02T10:51:30.714Z,32.45
2018-03-02T10:53:58.259Z,30.00
2018-03-02T10:56:25.774Z,30.70
2018-03-02T10:58:53.565Z,32.88
2018-03-02T11:01:26.003Z,34.72
2018-03-02T11:04:01.132Z,29.70
2018-03-02T11:06:28.652Z,30.95
2018-03-02T11:08:56.167Z,35.70
2018-03-02T11:11:23.716Z,28.80
2018-03-02T11:13:51.314Z,32.80
2018-03-02T11:16:19.277Z,31.80
2018-03-02T11:18:46.794Z,34.30
2018-03-02T11:21:14.301Z,32.80
2018-03-02T11:23:41.841Z,35.78
2018-03-02T11:26:09.370Z,33.88
2018-03-02T11:28:37.174Z,36.10
2018-03-02T11:31:04.695Z,32.20
2018-03-02T11:33:32.382Z,32.25
2018-03-02T11:35:59.951Z,31.85
2018-03-02T11:38:27.469Z,32.78
2018-03-02T11:40:55.373Z,33.55
2018-03-02T11:43:22.921Z,36.33
2018-03-02T11:45:50.438Z,33.28
2018-03-02T11:48:17.980Z,36.90
2018-03-02T11:50:45.506Z,35.20
2018-03-02T11:53:13.287Z,34.70
2018-03-02T11:55:41.189Z,36.03
2018-03-02T11:58:08.723Z,34.03
2018-03-02T12:00:36.287Z,36.47
2018-03-02T12:03:03.802Z,37.50
2018-03-02T12:05:31.486Z,34.38
2018-03-02T12:07:59.008Z,33.28
2018-03-02T12:10:26.523Z,32.75
2018-03-02T12:12:54.097Z,33.33
2018-03-02T12:15:21.617Z,37.85
2018-03-02T12:17:49.175Z,34.35
2018-03-02T12:20:16.705Z,32.92
2018-03-02T12:22:44.249Z,32.42
2018-03-02T12:25:11.801Z,34.70
2018-03-02T12:27:39.334Z,31.83
2018-03-02T12:30:07.193Z,33.72
2018-03-02T12:32:34.707Z,31.37
2018-03-02T12:35:02.306Z,32.75
2018-03-02T12:37:29.942Z,33.13
2018-03-02T12:39:57.639Z,30.48
2018-03-02T12:42:25.289Z,30.88
2018-03-02T12:44:52.818Z,34.50
2018-03-02T12:47:20.392Z,32.85
2018-03-02T12:49:48.092Z,32.97
2018-03-02T12:52:16.462Z,31.65
2018-03-02T12:54:44.115Z,30.58
2018-03-02T12:57:11.642Z,30.17
2018-03-02T12:59:39.206Z,34.03
2018-03-02T13:02:06.832Z,33.47
2018-03-02T13:04:34.568Z,34.72
2018-03-02T13:07:02.280Z,37.55
2018-03-02T13:09:29.946Z,35.58
2018-03-02T13:11:57.656Z,34.17
2018-03-02T13:14:25.245Z,34.20
2018-03-02T13:16:52.866Z,31.92
2018-03-02T13:19:20.641Z,32.80
2018-03-02T13:21:48.373Z,34.85
2018-03-02T13:24:16.194Z,32.58
2018-03-02T13:29:47.733Z,33.40
2018-03-02T13:32:15.811Z,30.88
2018-03-02T13:34:55.658Z,31.87
2018-03-02T13:37:23.321Z,30.98
2018-03-02T13:40:03.168Z,33.53
2018-03-02T13:42:31.136Z,33.65
2018-03-02T13:44:58.792Z,33.20
2018-03-02T13:47:36.482Z,31.05
2018-03-02T13:50:08.222Z,32.10
2018-03-02T13:52:36.081Z,33.58
2018-03-02T13:55:03.642Z,31.20
2018-03-02T13:57:43.155Z,32.22
2018-03-02T14:00:10.848Z,33.45
2018-03-02T14:02:50.422Z,33.40
2018-03-02T14:05:18.168Z,30.40
2018-03-02T14:07:46.052Z,32.63
2018-03-02T14:10:14.119Z,31.45
2018-03-02T14:12:41.885Z,31.00
2018-03-02T14:15:09.753Z,29.63
2018-03-02T14:17:37.546Z,32.83
2018-03-02T14:20:05.489Z,32.28
2018-03-02T14:22:33.353Z,30.42
2018-03-02T14:25:01.244Z,45.95
2018-03-02T14:27:30.110Z,47.58
2018-03-02T14:29:57.874Z,63.60
2018-03-02T14:32:25.738Z,101.97
2018-03-02T14:34:53.817Z,37.17
2018-03-02T14:37:21.676Z,32.50
2018-03-02T14:39:49.667Z,33.70
2018-03-02T14:42:17.614Z,31.60
2018-03-02T14:44:45.583Z,31.00
2018-03-02T14:47:13.450Z,31.37
2018-03-02T14:49:41.264Z,30.33
2018-03-02T14:52:10.080Z,31.55
2018-03-02T14:54:37.978Z,31.08
2018-03-02T14:57:05.836Z,32.30
2018-03-02T14:59:33.708Z,32.67
2018-03-02T15:02:01.572Z,31.90
2018-03-02T15:04:30.381Z,30.70
2018-03-02T15:06:58.406Z,30.80
2018-03-02T15:09:26.501Z,31.20
2018-03-02T15:11:54.468Z,33.55
2018-03-02T15:14:22.269Z,31.45
2018-03-02T15:16:51.123Z,32.88
2018-03-02T15:19:18.990Z,33.70
2018-03-02T15:21:47.061Z,31.70
2018-03-02T15:24:14.996Z,30.02
2018-03-02T15:26:42.796Z,32.28
2018-03-02T15:29:10.867Z,31.60
2018-03-02T15:31:38.630Z,29.30
2018-03-02T15:34:06.606Z,33.10
2018-03-02T15:36:34.260Z,32.40
2018-03-02T15:39:02.919Z,35.05
2018-03-02T15:41:31.662Z,31.37
2018-03-02T15:43:59.395Z,30.50
2018-03-02T15:46:27.261Z,32.72
2018-03-02T15:48:55.538Z,31.85
2018-03-02T15:51:23.404Z,32.35
2018-03-02T15:53:51.168Z,33.13
2018-03-02T15:56:18.928Z,32.00
2018-03-02T15:58:46.838Z,32.22
2018-03-02T16:01:14.665Z,31.48
2018-03-02T16:03:42.430Z,29.02
2018-03-02T16:06:10.808Z,30.15
2018-03-02T16:08:38.776Z,30.33
2018-03-02T16:11:06.642Z,30.83
2018-03-02T16:13:34.876Z,31.33
2018-03-02T16:16:02.785Z,28.87
2018-03-02T16:18:31.896Z,29.90
2018-03-02T16:21:00.568Z,31.95
2018-03-02T16:23:28.611Z,32.92
2018-03-02T16:25:56.504Z,32.63
2018-03-02T16:28:24.477Z,30.12
2018-03-02T16:30:52.338Z,31.52
2018-03-02T16:33:20.998Z,32.50
2018-03-02T16:35:48.788Z,29.63
2018-03-02T16:38:16.855Z,33.75
2018-03-02T16:40:44.628Z,32.92
2018-03-02T16:43:12.389Z,34.67
2018-03-02T16:45:40.644Z,33.75
2018-03-02T16:48:08.488Z,31.85
2018-03-02T16:50:36.192Z,31.52
2018-03-02T16:53:04.058Z,31.23
2018-03-02T16:55:32.452Z,32.90
2018-03-02T16:58:00.509Z,31.95
2018-03-02T17:00:28.482Z,31.00
2018-03-02T17:02:56.384Z,35.47
2018-03-02T17:05:24.415Z,31.60
2018-03-02T17:07:52.366Z,33.45
2018-03-02T17:10:20.250Z,34.03
2018-03-02T17:12:47.914Z,34.33
2018-03-02T17:15:15.880Z,31.08
2018-03-02T17:17:45.082Z,34.50
2018-03-02T17:20:13.055Z,35.00
2018-03-02T17:22:40.923Z,36.65
2018-03-02T17:25:08.785Z,32.80
2018-03-02T17:27:36.646Z,31.60
2018-03-02T17:30:04.411Z,36.08
2018-03-02T17:32:32.463Z,32.60
2018-03-02T17:35:00.146Z,34.10
2018-03-02T17:37:28.027Z,31.67
2018-03-02T17:39:55.756Z,33.03
2018-03-02T17:42:23.644Z,32.03
2018-03-02T17:44:51.610Z,31.62
2018-03-02T17:47:19.886Z,34.78
2018-03-02T17:49:49.706Z,33.75
2018-03-02T17:52:18.479Z,32.28
2018-03-02T17:54:47.172Z,34.53
2018-03-02T17:57:15.141Z,31.80
2018-03-02T17:59:43.008Z,35.80
2018-03-02T18:02:11.365Z,32.92
2018-03-02T18:04:39.251Z,35.65
2018-03-02T18:07:07.118Z,33.90
2018-03-02T18:09:35.191Z,37.08
2018-03-02T18:12:03.159Z,32.22
2018-03-02T18:14:31.025Z,35.13
2018-03-02T18:16:58.955Z,36.70
2018-03-02T18:19:26.760Z,35.80
2018-03-02T18:21:54.957Z,32.40
2018-03-02T18:24:23.688Z,36.28
2018-03-02T18:26:51.791Z,31.65
2018-03-02T18:29:19.688Z,36.63
2018-03-02T18:31:47.626Z,34.65
2018-03-02T18:34:16.336Z,35.40
2018-03-02T18:36:44.313Z,35.05
2018-03-02T18:39:12.148Z,34.47
2018-03-02T18:41:40.218Z,35.83
2018-03-02T18:44:08.085Z,31.42
2018-03-02T18:46:36.053Z,34.85
2018-03-02T18:49:04.027Z,32.63
2018-03-02T18:51:31.865Z,34.90
2018-03-02T18:54:00.472Z,34.20
2018-03-02T18:56:28.340Z,32.88
2018-03-02T18:58:56.119Z,33.83
2018-03-02T19:01:24.072Z,33.25
2018-03-02T19:03:52.044Z,35.53
2018-03-02T19:06:20.113Z,36.40
2018-03-02T19:08:48.348Z,34.70
2018-03-02T19:11:17.380Z,36.90
2018-03-02T19:13:45.355Z,38.88
2018-03-02T19:16:13.177Z,38.20
2018-03-02T19:18:41.697Z,39.22
2018-03-02T19:21:09.973Z,43.78
2018-03-02T19:23:37.942Z,41.15
2018-03-02T19:26:05.893Z,42.25
2018-03-02T19:28:33.986Z,38.75
2018-03-02T19:31:02.550Z,38.05
2018-03-02T19:33:30.433Z,39.15
2018-03-02T19:35:58.503Z,40.40
2018-03-02T19:38:26.644Z,36.10
2018-03-02T19:40:54.544Z,39.65
2018-03-02T19:43:22.717Z,42.65
2018-03-02T19:45:50.686Z,39.60
2018-03-02T19:48:18.657Z,40.50
2018-03-02T19:50:46.682Z,41.42
2018-03-02T19:53:14.574Z,40.75
2018-03-02T19:55:42.664Z,37.13
2018-03-02T19:58:11.248Z,39.60
2018-03-02T20:00:39.217Z,42.22
2018-03-02T20:03:07.184Z,40.35
2018-03-02T20:05:35.215Z,41.25
2018-03-02T20:08:03.056Z,43.75
2018-03-02T20:10:31.768Z,44.15
2018-03-02T20:12:59.675Z,44.78
2018-03-02T20:15:28.451Z,41.65
2018-03-02T20:17:56.331Z,45.97
2018-03-02T20:20:24.258Z,49.95
2018-03-02T20:22:52.191Z,45.40
2018-03-02T20:25:20.032Z,44.47
2018-03-02T20:27:48.419Z,42.50
2018-03-02T20:30:16.349Z,43.15
2018-03-02T20:32:44.263Z,41.08
2018-03-02T20:35:12.189Z,40.63
2018-03-02T20:37:40.291Z,40.20
2018-03-02T20:40:09.176Z,43.42
2018-03-02T20:42:37.031Z,43.65
2018-03-02T20:45:05.544Z,43.58
2018-03-02T20:47:34.413Z,46.60
2018-03-02T20:50:02.283Z,49.40
2018-03-02T20:52:30.321Z,42.15
2018-03-02T20:54:58.322Z,40.20
2018-03-02T20:57:26.189Z,47.13
2018-03-02T20:59:54.749Z,42.95
2018-03-02T21:02:22.637Z,45.70
2018-03-02T21:04:50.606Z,45.95
2018-03-02T21:07:18.575Z,47.35
2018-03-02T21:09:46.862Z,44.20
2018-03-02T21:12:14.729Z,46.28
2018-03-02T21:14:42.583Z,42.75
2018-03-02T21:17:10.554Z,50.28
2018-03-02T21:19:38.420Z,49.05
2018-03-02T21:22:06.388Z,44.92
2018-03-02T21:24:34.767Z,52.80
2018-03-02T21:27:03.043Z,48.53
2018-03-02T21:29:30.914Z,45.80
2018-03-02T21:31:59.594Z,47.30
2018-03-02T21:34:27.801Z,50.28
2018-03-02T21:36:55.650Z,48.47
2018-03-02T21:39:24.014Z,51.25
2018-03-02T21:41:51.982Z,48.00
2018-03-02T21:44:19.849Z,46.75
2018-03-02T21:46:47.587Z,49.72
2018-03-02T21:49:15.403Z,54.45
2018-03-02T21:51:43.156Z,51.50
2018-03-02T21:54:11.058Z,49.35
2018-03-02T21:56:39.029Z,53.08
2018-03-02T21:59:07.053Z,57.85
2018-03-02T22:01:34.915Z,51.58
2018-03-02T22:04:02.783Z,56.35
2018-03-02T22:06:30.558Z,62.62
2018-03-02T22:08:58.346Z,55.30
2018-03-02T22:11:26.576Z,52.30
2018-03-02T22:13:54.247Z,53.13
2018-03-02T22:16:22.122Z,54.78
2018-03-02T22:18:49.797Z,54.15
2018-03-02T22:21:17.372Z,50.85
2018-03-02T22:23:45.297Z,45.28
2018-03-02T22:26:12.971Z,58.03
2018-03-02T22:28:40.506Z,56.42
2018-03-02T22:31:08.135Z,52.40
2018-03-02T22:33:35.901Z,51.10
2018-03-02T22:36:03.714Z,48.85
2018-03-02T22:38:31.379Z,51.40
2018-03-02T22:40:59.245Z,56.45
2018-03-02T22:43:27.124Z,53.67
2018-03-02T22:45:54.771Z,53.90
2018-03-02T22:48:22.534Z,54.13
2018-03-02T22:50:50.166Z,52.20
2018-03-02T22:53:17.812Z,52.65
2018-03-02T22:55:45.520Z,53.05
2018-03-02T22:58:13.386Z,52.62
2018-03-02T23:00:41.686Z,53.58
2018-03-02T23:03:09.410Z,53.38
2018-03-02T23:05:37.014Z,54.80
2018-03-02T23:08:04.808Z,53.87
2018-03-02T23:10:32.517Z,53.50
2018-03-02T23:13:00.474Z,59.13
2018-03-02T23:15:28.307Z,69.80
2018-03-02T23:17:56.707Z,65.55
2018-03-02T23:20:24.306Z,52.22
2018-03-02T23:22:52.686Z,54.83
2018-03-02T23:25:21.510Z,51.83
2018-03-02T23:27:49.414Z,56.63
2018-03-02T23:30:17.188Z,54.42
2018-03-02T23:32:44.962Z,58.70
2018-03-02T23:35:12.499Z,55.08
2018-03-02T23:37:40.455Z,53.08
2018-03-02T23:40:08.144Z,53.70
2018-03-02T23:42:35.671Z,52.75
2018-03-02T23:45:03.463Z,54.42
2018-03-02T23:47:30.998Z,57.67
2018-03-02T23:49:58.561Z,58.08
2018-03-02T23:52:28.806Z,53.55
2018-03-02T23:54:56.390Z,56.72
2018-03-02T23:57:23.982Z,51.63
2018-03-02T23:59:52.235Z,54.38
